MSC Ornella — H3RF — position and weather

sailwx.info

Track history (hours):
 
Tides and Currents Weather Stations Pressure Air Temp Water Temp Dewpoint Dewpoint Depression Visibility Wind Speed Wind Dir Waves Ship Positions

MSC Ornella

Last reported at 2018-May-29 19:26 UTC. Time now 2018-Jun-22 22:54 UTC.
Position N 21°34' E 062°01'.
Warning: this ship's position is 24 days out of date.

; draft 13.1 m.

Type: Ship. MMSI: 354202000.

Date/timePositionNaut miles runAvg speedWind from/ knotsBaromVisibWave heightAir tempDewpointWater temp
2018-May-29 19:26N 21°34' E 062°01'816.6
2018-May-29 18:59N 21°29' E 062°07'1317.1
2018-May-29 18:14N 21°20' E 062°17'2817.2
2018-May-29 16:35N 21°01' E 062°39'117.2
2018-May-29 16:30N 20°60' E 062°40'917.3
2018-May-29 16:00N 20°54' E 062°47'  
2018-May-22 18:54N 01°13' E 103°28'813.0
2018-May-22 18:19N 01°11' E 103°35'3 9.2
2018-May-22 18:00N 01°12' E 103°38'4 7.9
2018-May-22 17:30N 01°14' E 103°41'5 9.9
2018-May-22 17:01N 01°16' E 103°46'0 0.8
2018-May-22 16:28N 01°16' E 103°46'0 0.0
2018-May-22 15:58N 01°16' E 103°46'0 0.0
2018-May-22 15:28N 01°16' E 103°46'0 0.0
2018-May-22 14:55N 01°16' E 103°46'0 0.0
2018-May-22 14:28N 01°16' E 103°46'0 0.0
2018-May-22 13:52N 01°16' E 103°46'0 0.0
2018-May-22 13:28N 01°16' E 103°46'0 0.0
2018-May-22 12:58N 01°16' E 103°46'0 0.0
2018-May-22 12:28N 01°16' E 103°46'0 0.0
2018-May-22 11:58N 01°16' E 103°46'0 0.0
2018-May-22 11:28N 01°16' E 103°46'0 0.0
2018-May-22 10:46N 01°16' E 103°46'0 0.0
2018-May-22 10:28N 01°16' E 103°46'0 0.0
2018-May-22 09:55N 01°16' E 103°46'0 0.0
2018-May-22 09:25N 01°16' E 103°46'0 0.0
2018-May-22 08:58N 01°16' E 103°46'0 0.0
2018-May-22 08:22N 01°16' E 103°46'0 0.0
2018-May-22 07:25N 01°16' E 103°46'0 0.0
2018-May-22 05:46N 01°16' E 103°46'0 0.0
2018-May-22 05:28N 01°16' E 103°46'0 0.0
2018-May-22 04:46N 01°16' E 103°46'0 0.0
2018-May-22 04:28N 01°16' E 103°46'0 0.0
2018-May-22 03:58N 01°16' E 103°46'0 0.0
2018-May-22 03:28N 01°16' E 103°46'0 0.0
2018-May-22 02:58N 01°16' E 103°46'0 0.0
2018-May-22 02:28N 01°16' E 103°46'0 0.0
2018-May-22 01:52N 01°16' E 103°46'0 0.0
2018-May-22 01:28N 01°16' E 103°46'0 0.0
2018-May-22 00:51N 01°16' E 103°46'0 0.3
2018-May-22 00:30N 01°16' E 103°46'1 2.2
2018-May-22 00:00N 01°15' E 103°47'4 8.2
2018-May-21 23:30N 01°12' E 103°50'5 9.0
2018-May-21 22:58N 01°14' E 103°54'4 8.7
2018-May-21 22:27N 01°15' E 103°59'510.2
2018-May-21 21:57N 01°16' E 104°04'  
Track history (hours):
 
Tides and Currents Weather Stations Pressure Air Temp Water Temp Dewpoint Dewpoint Depression Visibility Wind Speed Wind Dir Waves Ship Positions

MSC Ornella

Last reported at 2018-May-29 19:26 UTC. Time now 2018-Jun-22 22:54 UTC.
Position N 21°34' E 062°01'.
Warning: this ship's position is 24 days out of date.

; draft 13.1 m.

Type: Ship. MMSI: 354202000.

Date/timePositionNaut miles runAvg speedWind from/ knotsBaromVisibWave heightAir tempDewpointWater temp
2018-May-29 19:26N 21°34' E 062°01'816.6
2018-May-29 18:59N 21°29' E 062°07'1317.1
2018-May-29 18:14N 21°20' E 062°17'2817.2
2018-May-29 16:35N 21°01' E 062°39'117.2
2018-May-29 16:30N 20°60' E 062°40'917.3
2018-May-29 16:00N 20°54' E 062°47'  
2018-May-22 18:54N 01°13' E 103°28'813.0
2018-May-22 18:19N 01°11' E 103°35'3 9.2
2018-May-22 18:00N 01°12' E 103°38'4 7.9
2018-May-22 17:30N 01°14' E 103°41'5 9.9
2018-May-22 17:01N 01°16' E 103°46'0 0.8
2018-May-22 16:28N 01°16' E 103°46'0 0.0
2018-May-22 15:58N 01°16' E 103°46'0 0.0
2018-May-22 15:28N 01°16' E 103°46'0 0.0
2018-May-22 14:55N 01°16' E 103°46'0 0.0
2018-May-22 14:28N 01°16' E 103°46'0 0.0
2018-May-22 13:52N 01°16' E 103°46'0 0.0
2018-May-22 13:28N 01°16' E 103°46'0 0.0
2018-May-22 12:58N 01°16' E 103°46'0 0.0
2018-May-22 12:28N 01°16' E 103°46'0 0.0
2018-May-22 11:58N 01°16' E 103°46'0 0.0
2018-May-22 11:28N 01°16' E 103°46'0 0.0
2018-May-22 10:46N 01°16' E 103°46'0 0.0
2018-May-22 10:28N 01°16' E 103°46'0 0.0
2018-May-22 09:55N 01°16' E 103°46'0 0.0
2018-May-22 09:25N 01°16' E 103°46'0 0.0
2018-May-22 08:58N 01°16' E 103°46'0 0.0
2018-May-22 08:22N 01°16' E 103°46'0 0.0
2018-May-22 07:25N 01°16' E 103°46'0 0.0
2018-May-22 05:46N 01°16' E 103°46'0 0.0
2018-May-22 05:28N 01°16' E 103°46'0 0.0
2018-May-22 04:46N 01°16' E 103°46'0 0.0
2018-May-22 04:28N 01°16' E 103°46'0 0.0
2018-May-22 03:58N 01°16' E 103°46'0 0.0
2018-May-22 03:28N 01°16' E 103°46'0 0.0
2018-May-22 02:58N 01°16' E 103°46'0 0.0
2018-May-22 02:28N 01°16' E 103°46'0 0.0
2018-May-22 01:52N 01°16' E 103°46'0 0.0
2018-May-22 01:28N 01°16' E 103°46'0 0.0
2018-May-22 00:51N 01°16' E 103°46'0 0.3
2018-May-22 00:30N 01°16' E 103°46'1 2.2
2018-May-22 00:00N 01°15' E 103°47'4 8.2
2018-May-21 23:30N 01°12' E 103°50'5 9.0
2018-May-21 22:58N 01°14' E 103°54'4 8.7
2018-May-21 22:27N 01°15' E 103°59'510.2
2018-May-21 21:57N 01°16' E 104°04'  

Dump ship's entire track history